JIA5239 KGSO-KCLT
Flight info
| Callsign | JIA5239 |
|---|---|
| Flight time | 0h 21m |
| Altitude | 12000 |
| Route | CHSLY CHSLY6 |
| Aircraft | CRJ9/M-SDFGIRWY/S |
Departure
| Time | 2026-05-07 02:01 |
|---|---|
| Airport | Piedmont Triad International Airport (KGSO) |
Arrival
| Time | 2026-05-07 02:22 |
|---|---|
| Airport | Charlotte Douglas International Airport (KCLT) |
| Time | Latitude | Longitude | Altitude | Speed | Heading |
|---|---|---|---|---|---|
| 2026-05-07 01:41 | 36.10281 | -79.93621 | 924 ft | 0 kts | 63° |
| 2026-05-07 01:50 | 36.10275 | -79.93636 | 927 ft | 3 kts | 63° |
| 2026-05-07 01:50 | 36.10269 | -79.93663 | 925 ft | 4 kts | 110° |
| 2026-05-07 01:51 | 36.10284 | -79.93687 | 924 ft | 4 kts | 148° |
| 2026-05-07 01:51 | 36.10295 | -79.93694 | 921 ft | 1 kts | 150° |
| 2026-05-07 01:51 | 36.10295 | -79.93695 | 921 ft | 0 kts | 150° |
| 2026-05-07 01:54 | 36.10276 | -79.93681 | 925 ft | 11 kts | 147° |
| 2026-05-07 01:54 | 36.10216 | -79.93617 | 922 ft | 12 kts | 136° |
| 2026-05-07 01:55 | 36.10151 | -79.93540 | 922 ft | 13 kts | 134° |
| 2026-05-07 01:55 | 36.10164 | -79.93434 | 926 ft | 18 kts | 46° |
| 2026-05-07 01:55 | 36.10276 | -79.93292 | 927 ft | 25 kts | 46° |
| 2026-05-07 01:55 | 36.10390 | -79.93145 | 931 ft | 22 kts | 46° |
| 2026-05-07 01:56 | 36.10492 | -79.93017 | 932 ft | 19 kts | 45° |
| 2026-05-07 01:56 | 36.10580 | -79.92905 | 934 ft | 18 kts | 46° |
| 2026-05-07 01:56 | 36.10671 | -79.92788 | 938 ft | 20 kts | 46° |
| 2026-05-07 01:56 | 36.10777 | -79.92653 | 939 ft | 24 kts | 45° |
| 2026-05-07 01:57 | 36.10889 | -79.92510 | 942 ft | 22 kts | 46° |
| 2026-05-07 01:57 | 36.10993 | -79.92378 | 945 ft | 20 kts | 45° |
| 2026-05-07 01:57 | 36.11086 | -79.92258 | 947 ft | 17 kts | 47° |
| 2026-05-07 01:57 | 36.11112 | -79.92180 | 949 ft | 9 kts | 104° |
| 2026-05-07 01:58 | 36.11078 | -79.92126 | 949 ft | 8 kts | 136° |
| 2026-05-07 01:58 | 36.11071 | -79.92117 | 949 ft | 0 kts | 136° |
| 2026-05-07 02:00 | 36.11045 | -79.92089 | 948 ft | 11 kts | 144° |
| 2026-05-07 02:00 | 36.10968 | -79.92101 | 947 ft | 22 kts | 223° |
| 2026-05-07 02:00 | 36.10691 | -79.92453 | 941 ft | 94 kts | 226° |
| 2026-05-07 02:00 | 36.10075 | -79.93231 | 924 ft | 156 kts | 225° |
| 2026-05-07 02:01 | 36.09283 | -79.94229 | 1527 ft | 161 kts | 225° |
| 2026-05-07 02:01 | 36.08533 | -79.95165 | 2610 ft | 147 kts | 226° |
| 2026-05-07 02:01 | 36.07797 | -79.96025 | 3447 ft | 149 kts | 225° |
| 2026-05-07 02:01 | 36.07039 | -79.96930 | 4147 ft | 156 kts | 230° |
| 2026-05-07 02:02 | 36.06290 | -79.98062 | 4516 ft | 185 kts | 234° |
| 2026-05-07 02:02 | 36.05517 | -79.99420 | 5175 ft | 203 kts | 237° |
| 2026-05-07 02:02 | 36.04712 | -80.00929 | 5958 ft | 217 kts | 239° |
| 2026-05-07 02:02 | 36.03887 | -80.02515 | 6818 ft | 222 kts | 239° |
| 2026-05-07 02:03 | 36.03065 | -80.04140 | 7599 ft | 226 kts | 240° |
| 2026-05-07 02:03 | 36.02245 | -80.05806 | 8423 ft | 228 kts | 240° |
| 2026-05-07 02:03 | 36.01412 | -80.07491 | 9225 ft | 231 kts | 240° |
| 2026-05-07 02:03 | 36.00543 | -80.09182 | 9994 ft | 236 kts | 239° |
| 2026-05-07 02:04 | 35.99647 | -80.10893 | 10736 ft | 238 kts | 239° |
| 2026-05-07 02:04 | 35.98717 | -80.12665 | 11188 ft | 254 kts | 239° |
| 2026-05-07 02:04 | 35.97726 | -80.14556 | 11616 ft | 270 kts | 239° |
| 2026-05-07 02:04 | 35.96686 | -80.16538 | 11831 ft | 279 kts | 239° |
| 2026-05-07 02:05 | 35.95615 | -80.18576 | 11921 ft | 287 kts | 239° |
| 2026-05-07 02:05 | 35.94533 | -80.20627 | 11958 ft | 282 kts | 239° |
| 2026-05-07 02:05 | 35.93475 | -80.22635 | 11966 ft | 278 kts | 239° |
| 2026-05-07 02:05 | 35.92422 | -80.24621 | 11965 ft | 276 kts | 239° |
| 2026-05-07 02:06 | 35.91380 | -80.26598 | 11967 ft | 274 kts | 239° |
| 2026-05-07 02:06 | 35.90343 | -80.28564 | 11966 ft | 273 kts | 239° |
| 2026-05-07 02:06 | 35.89315 | -80.30499 | 11966 ft | 272 kts | 239° |
| 2026-05-07 02:06 | 35.88281 | -80.32454 | 11966 ft | 271 kts | 239° |
| 2026-05-07 02:07 | 35.87253 | -80.34401 | 11968 ft | 271 kts | 239° |
| 2026-05-07 02:07 | 35.85198 | -80.38279 | 12010 ft | 270 kts | 239° |
| 2026-05-07 02:07 | 35.84177 | -80.40212 | 12012 ft | 269 kts | 239° |
| 2026-05-07 02:08 | 35.83122 | -80.42118 | 12004 ft | 270 kts | 232° |
| 2026-05-07 02:08 | 35.81710 | -80.43666 | 12021 ft | 272 kts | 221° |
| 2026-05-07 02:08 | 35.80182 | -80.45058 | 12021 ft | 273 kts | 220° |
| 2026-05-07 02:08 | 35.78641 | -80.46436 | 12020 ft | 274 kts | 220° |
| 2026-05-07 02:09 | 35.77115 | -80.47807 | 12037 ft | 275 kts | 220° |
| 2026-05-07 02:09 | 35.75580 | -80.49236 | 12038 ft | 277 kts | 221° |
| 2026-05-07 02:09 | 35.73895 | -80.50440 | 12038 ft | 283 kts | 208° |
| 2026-05-07 02:09 | 35.72031 | -80.51280 | 12046 ft | 287 kts | 203° |
| 2026-05-07 02:10 | 35.70107 | -80.51985 | 12043 ft | 288 kts | 202° |
| 2026-05-07 02:10 | 35.68353 | -80.52984 | 12022 ft | 277 kts | 225° |
| 2026-05-07 02:10 | 35.67181 | -80.54804 | 12048 ft | 271 kts | 238° |
| 2026-05-07 02:10 | 35.66171 | -80.56758 | 12048 ft | 271 kts | 240° |
| 2026-05-07 02:11 | 35.65199 | -80.58740 | 12043 ft | 271 kts | 241° |
| 2026-05-07 02:11 | 35.64250 | -80.60735 | 12041 ft | 267 kts | 241° |
| 2026-05-07 02:11 | 35.63351 | -80.62658 | 12000 ft | 250 kts | 242° |
| 2026-05-07 02:11 | 35.62518 | -80.64447 | 11978 ft | 233 kts | 242° |
| 2026-05-07 02:12 | 35.61727 | -80.66141 | 11977 ft | 223 kts | 242° |
| 2026-05-07 02:12 | 35.60969 | -80.67763 | 11978 ft | 219 kts | 242° |
| 2026-05-07 02:12 | 35.60213 | -80.69393 | 11992 ft | 219 kts | 242° |
| 2026-05-07 02:12 | 35.59455 | -80.71021 | 12017 ft | 219 kts | 242° |
| 2026-05-07 02:13 | 35.58703 | -80.72642 | 12103 ft | 216 kts | 242° |
| 2026-05-07 02:13 | 35.57951 | -80.74255 | 11787 ft | 222 kts | 242° |
| 2026-05-07 02:13 | 35.57184 | -80.75903 | 11534 ft | 223 kts | 242° |
| 2026-05-07 02:13 | 35.56408 | -80.77577 | 11153 ft | 228 kts | 242° |
| 2026-05-07 02:14 | 35.55618 | -80.79297 | 10763 ft | 232 kts | 242° |
| 2026-05-07 02:14 | 35.54824 | -80.81033 | 10367 ft | 234 kts | 242° |
| 2026-05-07 02:14 | 35.54034 | -80.82766 | 9928 ft | 231 kts | 242° |
| 2026-05-07 02:14 | 35.53254 | -80.84482 | 9397 ft | 229 kts | 242° |
| 2026-05-07 02:15 | 35.52475 | -80.86197 | 8794 ft | 230 kts | 242° |
| 2026-05-07 02:15 | 35.51706 | -80.87913 | 8288 ft | 227 kts | 242° |
| 2026-05-07 02:15 | 35.50954 | -80.89599 | 7850 ft | 222 kts | 242° |
| 2026-05-07 02:15 | 35.50222 | -80.91244 | 7431 ft | 223 kts | 242° |
| 2026-05-07 02:16 | 35.49473 | -80.92917 | 6979 ft | 224 kts | 242° |
| 2026-05-07 02:16 | 35.48727 | -80.94601 | 6554 ft | 225 kts | 242° |
| 2026-05-07 02:16 | 35.47970 | -80.96282 | 6124 ft | 224 kts | 238° |
| 2026-05-07 02:16 | 35.46825 | -80.97577 | 5681 ft | 227 kts | 214° |
| 2026-05-07 02:17 | 35.45316 | -80.98134 | 5225 ft | 235 kts | 181° |
| 2026-05-07 02:17 | 35.43802 | -80.97372 | 4804 ft | 242 kts | 147° |
| 2026-05-07 02:17 | 35.42545 | -80.95998 | 4392 ft | 242 kts | 144° |
| 2026-05-07 02:17 | 35.41214 | -80.94903 | 4133 ft | 218 kts | 172° |
| 2026-05-07 02:18 | 35.39799 | -80.94717 | 4072 ft | 200 kts | 186° |
| 2026-05-07 02:18 | 35.38402 | -80.94697 | 3798 ft | 203 kts | 187° |
| 2026-05-07 02:18 | 35.37017 | -80.94689 | 3546 ft | 196 kts | 187° |
| 2026-05-07 02:18 | 35.35704 | -80.94677 | 3299 ft | 183 kts | 187° |
| 2026-05-07 02:19 | 35.34467 | -80.94615 | 3105 ft | 177 kts | 186° |
| 2026-05-07 02:19 | 35.33264 | -80.94528 | 2868 ft | 171 kts | 186° |
| 2026-05-07 02:19 | 35.32076 | -80.94440 | 2667 ft | 169 kts | 185° |
| 2026-05-07 02:19 | 35.30911 | -80.94349 | 2430 ft | 168 kts | 185° |
| 2026-05-07 02:20 | 35.29783 | -80.94255 | 2211 ft | 159 kts | 183° |
| 2026-05-07 02:20 | 35.28745 | -80.94154 | 2020 ft | 145 kts | 185° |
| 2026-05-07 02:20 | 35.27722 | -80.94083 | 1849 ft | 151 kts | 184° |
| 2026-05-07 02:20 | 35.26673 | -80.94004 | 1642 ft | 151 kts | 182° |
| 2026-05-07 02:21 | 35.25606 | -80.93931 | 1421 ft | 156 kts | 180° |
| 2026-05-07 02:21 | 35.24533 | -80.93775 | 1218 ft | 157 kts | 175° |
| 2026-05-07 02:21 | 35.23409 | -80.93695 | 1005 ft | 168 kts | 179° |
| 2026-05-07 02:21 | 35.22245 | -80.93595 | 744 ft | 158 kts | 177° |
| 2026-05-07 02:22 | 35.21331 | -80.93519 | 732 ft | 105 kts | 176° |
| 2026-05-07 02:22 | 35.20768 | -80.93474 | 734 ft | 48 kts | 176° |
| 2026-05-07 02:22 | 35.20547 | -80.93492 | 733 ft | 28 kts | 203° |
| 2026-05-07 02:22 | 35.20489 | -80.93577 | 731 ft | 8 kts | 309° |
| 2026-05-07 02:23 | 35.20520 | -80.93586 | 731 ft | 6 kts | 358° |
| 2026-05-07 02:23 | 35.20581 | -80.93588 | 731 ft | 11 kts | 358° |
| 2026-05-07 02:23 | 35.20713 | -80.93601 | 731 ft | 23 kts | 355° |
| 2026-05-07 02:23 | 35.20887 | -80.93616 | 731 ft | 25 kts | 356° |
| 2026-05-07 02:24 | 35.21043 | -80.93631 | 731 ft | 20 kts | 354° |
| 2026-05-07 02:24 | 35.21171 | -80.93641 | 731 ft | 20 kts | 358° |
| 2026-05-07 02:24 | 35.21326 | -80.93654 | 731 ft | 21 kts | 356° |
| 2026-05-07 02:24 | 35.21455 | -80.93665 | 731 ft | 16 kts | 356° |
| 2026-05-07 02:25 | 35.21557 | -80.93681 | 731 ft | 16 kts | 334° |
| 2026-05-07 02:25 | 35.21630 | -80.93771 | 731 ft | 13 kts | 310° |
| 2026-05-07 02:25 | 35.21686 | -80.93853 | 731 ft | 13 kts | 311° |
| 2026-05-07 02:25 | 35.21770 | -80.93945 | 730 ft | 17 kts | 319° |
| 2026-05-07 02:26 | 35.21850 | -80.93988 | 730 ft | 11 kts | 39° |
| 2026-05-07 02:26 | 35.21925 | -80.93905 | 730 ft | 18 kts | 43° |
| 2026-05-07 02:26 | 35.22008 | -80.93808 | 730 ft | 16 kts | 20° |
| 2026-05-07 02:26 | 35.22125 | -80.93808 | 731 ft | 16 kts | 356° |
| 2026-05-07 02:27 | 35.22236 | -80.93817 | 731 ft | 21 kts | 355° |
| 2026-05-07 02:27 | 35.22406 | -80.93832 | 731 ft | 24 kts | 355° |
| 2026-05-07 02:27 | 35.22551 | -80.93848 | 731 ft | 19 kts | 355° |
| 2026-05-07 02:27 | 35.22635 | -80.93913 | 731 ft | 13 kts | 287° |
| 2026-05-07 02:28 | 35.22644 | -80.94004 | 730 ft | 9 kts | 269° |
| 2026-05-07 02:28 | 35.22638 | -80.94044 | 730 ft | 1 kts | 215° |
| 2026-05-07 02:28 | 35.22609 | -80.94051 | 730 ft | 3 kts | 179° |
| 2026-05-07 02:28 | 35.22604 | -80.94051 | 730 ft | 0 kts | 178° |